createdAt,value
2018-03-15T00:02:44.060Z,6.53
2018-03-15T00:08:34.948Z,5.13
2018-03-15T00:14:25.944Z,7.52
2018-03-15T00:20:16.720Z,14.94
2018-03-15T00:26:07.628Z,36.85
2018-03-15T00:31:58.551Z,9.69
2018-03-15T00:37:49.412Z,7.15
2018-03-15T00:43:40.296Z,10.14
2018-03-15T00:49:31.199Z,9.68
2018-03-15T00:55:22.055Z,9.17
2018-03-15T01:01:12.976Z,8.86
2018-03-15T01:07:03.846Z,8.8
2018-03-15T01:12:54.733Z,7.12
2018-03-15T01:18:45.713Z,8.08
2018-03-15T01:24:36.570Z,7.85
2018-03-15T01:30:27.411Z,8.29
2018-03-15T01:36:18.401Z,6.28
2018-03-15T01:42:09.212Z,7.01
2018-03-15T01:48:00.120Z,7.35
2018-03-15T01:53:51.008Z,7.05
2018-03-15T01:59:41.872Z,7.21
2018-03-15T02:05:32.791Z,7.27
2018-03-15T02:11:23.683Z,7.75
2018-03-15T02:17:14.537Z,7.28
2018-03-15T02:23:05.478Z,8.15
2018-03-15T02:28:56.331Z,8.69
2018-03-15T02:34:47.286Z,13.14
2018-03-15T02:40:38.139Z,14.65
2018-03-15T02:46:29.045Z,14.43
2018-03-15T02:52:19.950Z,14.96
2018-03-15T02:58:10.807Z,14.66
2018-03-15T03:04:01.740Z,16.03
2018-03-15T03:09:52.580Z,16.25
2018-03-15T03:15:43.506Z,15.93
2018-03-15T03:21:34.418Z,16.52
2018-03-15T03:27:25.243Z,15.87
2018-03-15T03:33:16.213Z,14.56
2018-03-15T03:39:07.062Z,13.54
2018-03-15T03:44:57.946Z,13.41
2018-03-15T03:50:48.868Z,14.38
2018-03-15T03:56:39.747Z,13.03
2018-03-15T04:02:30.637Z,14.73
2018-03-15T04:08:21.482Z,14.68
2018-03-15T04:14:12.430Z,14.49
2018-03-15T04:20:03.477Z,15.65
2018-03-15T04:25:54.174Z,14.02
2018-03-15T04:31:45.084Z,16.05
2018-03-15T04:37:36.009Z,15.85
2018-03-15T04:43:26.898Z,15.4
2018-03-15T04:49:17.819Z,13.6
2018-03-15T04:55:10.848Z,13.94
2018-03-15T05:00:59.546Z,14.79
2018-03-15T05:06:50.513Z,15.11
2018-03-15T05:12:41.445Z,14.48
2018-03-15T05:18:32.220Z,14.07
2018-03-15T05:24:23.175Z,14.74
2018-03-15T05:30:14.025Z,14.98
2018-03-15T05:36:05.018Z,12.42
2018-03-15T05:41:55.823Z,11.5
2018-03-15T05:47:46.801Z,12.3
2018-03-15T05:53:37.620Z,14.2
2018-03-15T05:59:28.485Z,14.53
2018-03-15T06:05:19.362Z,12.82
2018-03-15T06:11:10.263Z,11.94
2018-03-15T06:17:01.180Z,13.08
2018-03-15T06:22:52.045Z,11.69
2018-03-15T06:28:42.952Z,10.08
2018-03-15T06:34:33.818Z,11.05
2018-03-15T06:40:24.731Z,12.99
2018-03-15T06:46:15.624Z,13.22
2018-03-15T06:52:06.575Z,29.05
2018-03-15T06:57:57.477Z,21.33
2018-03-15T07:03:48.301Z,15.57
2018-03-15T07:09:39.187Z,14.34
2018-03-15T07:15:30.085Z,14.32
2018-03-15T07:21:20.959Z,15.47
2018-03-15T07:27:11.868Z,14.71
2018-03-15T07:33:02.802Z,14.9
2018-03-15T07:38:53.732Z,15.25
2018-03-15T07:44:44.607Z,12.23
2018-03-15T07:50:35.422Z,13.89
2018-03-15T07:56:26.364Z,15.59
2018-03-15T08:02:17.208Z,20.8
2018-03-15T08:08:08.095Z,20.86
2018-03-15T08:13:59.022Z,19.96
2018-03-15T08:19:49.916Z,18.91
2018-03-15T08:25:40.838Z,17.56
2018-03-15T08:31:31.696Z,15.41
2018-03-15T08:37:22.603Z,17.34
2018-03-15T08:43:13.522Z,16.39
2018-03-15T08:49:04.423Z,19.1
2018-03-15T08:54:55.269Z,23.09
2018-03-15T09:00:46.143Z,17.41
2018-03-15T09:06:37.046Z,17.88
2018-03-15T09:12:27.953Z,17.59
2018-03-15T09:18:18.865Z,15.24
2018-03-15T09:24:09.708Z,11.79
2018-03-15T09:30:00.615Z,9.81
2018-03-15T09:35:51.488Z,9.54
2018-03-15T09:41:42.386Z,8.01
2018-03-15T09:47:33.343Z,8.71
2018-03-15T09:53:24.215Z,9.27
2018-03-15T09:59:15.105Z,8.29
2018-03-15T10:05:05.985Z,9.27
2018-03-15T10:10:56.910Z,9.07
2018-03-15T10:16:47.754Z,11.41
2018-03-15T10:22:38.648Z,9.21
2018-03-15T10:28:29.544Z,10.4
2018-03-15T10:34:20.447Z,10.36
2018-03-15T10:40:11.360Z,11.54
2018-03-15T10:46:02.246Z,12
2018-03-15T10:51:53.166Z,9.94
2018-03-15T10:57:44.040Z,9.96
2018-03-15T11:03:34.938Z,10.73
2018-03-15T11:09:25.822Z,9.52
2018-03-15T11:15:16.692Z,8.41
2018-03-15T11:21:07.610Z,9.86
2018-03-15T11:26:58.494Z,10.54
2018-03-15T11:32:49.367Z,11.51
2018-03-15T11:38:40.290Z,11.77
2018-03-15T11:44:31.267Z,9.16
2018-03-15T11:50:22.072Z,11
2018-03-15T11:56:12.981Z,8.2
2018-03-15T12:02:03.872Z,16.46
2018-03-15T12:07:54.771Z,27.46
2018-03-15T12:13:45.671Z,14.98
2018-03-15T12:19:36.513Z,12.77
2018-03-15T12:25:27.429Z,17.25
2018-03-15T12:31:18.307Z,18.6
2018-03-15T12:37:09.218Z,12.23
2018-03-15T12:43:00.086Z,6.55
2018-03-15T12:48:51.017Z,6.83
2018-03-15T12:54:41.898Z,7.68
2018-03-15T13:00:32.778Z,7.97
2018-03-15T13:06:23.718Z,8.72
2018-03-15T13:12:14.585Z,10.26
2018-03-15T13:18:05.451Z,10.44
2018-03-15T13:23:56.337Z,17.23
2018-03-15T13:29:47.248Z,7.35
2018-03-15T13:35:38.115Z,15.25
2018-03-15T13:41:29.074Z,17.22
2018-03-15T13:47:19.933Z,15.51
2018-03-15T13:53:10.826Z,13.45
2018-03-15T13:59:01.713Z,17.27
2018-03-15T14:04:52.612Z,16.4
2018-03-15T14:10:43.503Z,13.52
2018-03-15T14:16:34.374Z,13.29
2018-03-15T14:22:25.274Z,13.12
2018-03-15T14:28:16.195Z,13.6
2018-03-15T14:34:07.071Z,13.56
2018-03-15T14:39:58.002Z,12.63
2018-03-15T14:45:48.837Z,15.82
2018-03-15T14:51:39.735Z,12.43
2018-03-15T14:57:30.669Z,14.82
2018-03-15T15:03:21.547Z,18.66
2018-03-15T15:09:12.436Z,17.4
2018-03-15T15:15:03.344Z,16.66
2018-03-15T15:20:54.243Z,12.1
2018-03-15T15:26:45.142Z,11.57
2018-03-15T15:32:36.049Z,8.86
2018-03-15T15:48:13.883Z,7.64
2018-03-15T15:54:04.790Z,7.28
2018-03-15T15:59:55.646Z,9.72
2018-03-15T16:05:46.611Z,10.18
2018-03-15T16:11:37.505Z,8.15
2018-03-15T16:17:28.342Z,9.5
2018-03-15T16:23:19.242Z,10.24
2018-03-15T16:29:10.164Z,12.5
2018-03-15T16:35:01.053Z,15.9
2018-03-15T16:40:51.949Z,9.77
2018-03-15T16:46:42.844Z,10.05
2018-03-15T16:52:33.717Z,14.45
2018-03-15T16:58:24.632Z,11.07
2018-03-15T17:04:15.551Z,10.61
2018-03-15T17:10:06.398Z,19.47
2018-03-15T17:15:57.313Z,9.01
2018-03-15T17:21:48.200Z,8.42
2018-03-15T17:27:39.082Z,15.11
2018-03-15T17:33:29.952Z,15.33
2018-03-15T17:39:20.869Z,14.81
2018-03-15T17:45:11.751Z,12.57
2018-03-15T17:51:02.631Z,13.06
2018-03-15T17:56:53.591Z,14.05
2018-03-15T18:02:44.454Z,8.91
2018-03-15T18:08:35.375Z,8.14
2018-03-15T18:14:26.308Z,11.32
2018-03-15T18:20:17.148Z,12.16
2018-03-15T18:26:08.047Z,13.04
2018-03-15T18:31:58.937Z,8.85
2018-03-15T18:37:49.804Z,13.09
2018-03-15T18:43:40.699Z,5.44
2018-03-15T18:49:31.645Z,8.1
2018-03-15T18:55:22.543Z,11.17
2018-03-15T19:01:13.398Z,13.75
2018-03-15T19:07:04.292Z,10.3
2018-03-15T19:12:55.188Z,15.23
2018-03-15T19:18:46.116Z,13.48
2018-03-15T19:24:36.972Z,11.42
2018-03-15T19:30:27.910Z,7.14
2018-03-15T19:36:18.818Z,10.73
2018-03-15T19:42:09.713Z,12.87
2018-03-15T19:48:00.589Z,8.28
2018-03-15T19:53:51.460Z,9.62
2018-03-15T19:59:42.358Z,8
2018-03-15T20:05:33.264Z,6.8
2018-03-15T20:11:24.155Z,7.25
2018-03-15T20:17:15.073Z,9.25
2018-03-15T20:23:06.000Z,6.6
2018-03-15T20:28:56.881Z,7.56
2018-03-15T20:34:47.783Z,8.91
2018-03-15T20:40:38.649Z,10.4
2018-03-15T20:46:29.555Z,12.93
2018-03-15T20:52:20.424Z,12.29
2018-03-15T20:58:11.352Z,14.46
2018-03-15T21:04:02.263Z,13.49
2018-03-15T21:09:53.140Z,25.07
2018-03-15T21:15:44.005Z,16.1
2018-03-15T21:21:34.948Z,12.42
2018-03-15T21:27:25.840Z,15.91
2018-03-15T21:33:16.684Z,13.62
2018-03-15T21:39:07.661Z,10.1
2018-03-15T21:44:58.490Z,7.99
2018-03-15T21:50:49.442Z,8.5
2018-03-15T21:56:40.378Z,6.09
2018-03-15T22:02:31.224Z,5.71
2018-03-15T22:08:22.133Z,3.5
2018-03-15T22:14:12.969Z,2.1
2018-03-15T22:20:03.855Z,3.92
2018-03-15T22:25:54.758Z,3.25
2018-03-15T22:31:45.669Z,3.31
2018-03-15T22:37:36.579Z,2.07
2018-03-15T22:43:27.436Z,3.72
2018-03-15T22:49:18.333Z,3.91
2018-03-15T22:55:09.273Z,4.64
2018-03-15T23:01:00.160Z,4.36
2018-03-15T23:06:51.060Z,3.92
2018-03-15T23:12:41.941Z,12.69
2018-03-15T23:18:32.796Z,6.1
2018-03-15T23:24:23.714Z,3.46
2018-03-15T23:30:14.651Z,3.3
2018-03-15T23:36:05.500Z,4.06
2018-03-15T23:41:56.413Z,2.97
2018-03-15T23:47:47.317Z,2.77
2018-03-15T23:53:38.226Z,2.69
2018-03-15T23:59:29.105Z,2.27
